sensor_id;sensor_type;location;lat;lon;timestamp;temperature;humidity
14095;DHT22;18096;48.142;16.290;2024-02-21T00:00:52;8.00;99.90
14095;DHT22;18096;48.142;16.290;2024-02-21T00:03:18;8.00;99.90
14095;DHT22;18096;48.142;16.290;2024-02-21T00:05:45;8.00;99.90
14095;DHT22;18096;48.142;16.290;2024-02-21T00:08:10;8.20;99.90
14095;DHT22;18096;48.142;16.290;2024-02-21T00:10:37;8.10;99.90
14095;DHT22;18096;48.142;16.290;2024-02-21T00:13:03;8.00;99.90
14095;DHT22;18096;48.142;16.290;2024-02-21T00:15:29;8.00;99.90
14095;DHT22;18096;48.142;16.290;2024-02-21T00:17:55;8.10;99.90
14095;DHT22;18096;48.142;16.290;2024-02-21T00:20:21;8.10;99.90
14095;DHT22;18096;48.142;16.290;2024-02-21T00:22:46;8.10;99.90
14095;DHT22;18096;48.142;16.290;2024-02-21T00:25:12;8.00;99.90
14095;DHT22;18096;48.142;16.290;2024-02-21T00:27:38;8.00;99.90
14095;DHT22;18096;48.142;16.290;2024-02-21T00:30:07;8.00;99.90
14095;DHT22;18096;48.142;16.290;2024-02-21T00:32:33;8.10;99.90
14095;DHT22;18096;48.142;16.290;2024-02-21T00:35:00;8.10;99.90
14095;DHT22;18096;48.142;16.290;2024-02-21T00:37:26;8.10;99.90
14095;DHT22;18096;48.142;16.290;2024-02-21T00:39:54;8.10;99.90
14095;DHT22;18096;48.142;16.290;2024-02-21T00:42:20;8.20;99.90
14095;DHT22;18096;48.142;16.290;2024-02-21T00:44:46;8.10;99.90
14095;DHT22;18096;48.142;16.290;2024-02-21T00:47:12;8.10;99.90
14095;DHT22;18096;48.142;16.290;2024-02-21T00:49:38;8.10;99.90
14095;DHT22;18096;48.142;16.290;2024-02-21T00:52:03;8.10;99.90
14095;DHT22;18096;48.142;16.290;2024-02-21T00:54:29;8.10;99.90
14095;DHT22;18096;48.142;16.290;2024-02-21T00:56:55;8.10;99.90
14095;DHT22;18096;48.142;16.290;2024-02-21T00:59:20;8.10;99.90
14095;DHT22;18096;48.142;16.290;2024-02-21T01:01:46;8.10;99.90
14095;DHT22;18096;48.142;16.290;2024-02-21T01:04:11;8.10;99.90
14095;DHT22;18096;48.142;16.290;2024-02-21T01:06:38;8.20;99.90
14095;DHT22;18096;48.142;16.290;2024-02-21T01:09:05;8.10;99.90
14095;DHT22;18096;48.142;16.290;2024-02-21T01:11:31;8.10;99.90
14095;DHT22;18096;48.142;16.290;2024-02-21T01:13:56;8.00;99.90
14095;DHT22;18096;48.142;16.290;2024-02-21T01:16:22;8.10;99.90
14095;DHT22;18096;48.142;16.290;2024-02-21T01:18:47;8.00;99.90
14095;DHT22;18096;48.142;16.290;2024-02-21T01:21:13;8.10;99.90
14095;DHT22;18096;48.142;16.290;2024-02-21T01:23:39;8.10;99.90
14095;DHT22;18096;48.142;16.290;2024-02-21T01:26:05;8.10;99.90
14095;DHT22;18096;48.142;16.290;2024-02-21T01:28:34;8.10;99.90
14095;DHT22;18096;48.142;16.290;2024-02-21T01:30:59;8.10;99.90
14095;DHT22;18096;48.142;16.290;2024-02-21T01:33:25;8.10;99.90
14095;DHT22;18096;48.142;16.290;2024-02-21T01:35:52;8.10;99.90
14095;DHT22;18096;48.142;16.290;2024-02-21T01:38:18;8.10;99.90
14095;DHT22;18096;48.142;16.290;2024-02-21T01:40:44;8.00;99.90
14095;DHT22;18096;48.142;16.290;2024-02-21T01:43:16;8.00;99.90
14095;DHT22;18096;48.142;16.290;2024-02-21T01:45:45;8.00;99.90
14095;DHT22;18096;48.142;16.290;2024-02-21T01:48:12;8.00;99.90
14095;DHT22;18096;48.142;16.290;2024-02-21T01:50:38;8.00;99.90
14095;DHT22;18096;48.142;16.290;2024-02-21T01:53:05;8.00;99.90
14095;DHT22;18096;48.142;16.290;2024-02-21T01:55:33;7.90;99.90
14095;DHT22;18096;48.142;16.290;2024-02-21T01:57:59;8.00;99.90
14095;DHT22;18096;48.142;16.290;2024-02-21T02:00:27;8.00;99.90
14095;DHT22;18096;48.142;16.290;2024-02-21T02:02:54;8.00;99.90
14095;DHT22;18096;48.142;16.290;2024-02-21T02:05:20;8.00;99.90
14095;DHT22;18096;48.142;16.290;2024-02-21T02:07:46;8.00;99.90
14095;DHT22;18096;48.142;16.290;2024-02-21T02:10:12;8.00;99.90
14095;DHT22;18096;48.142;16.290;2024-02-21T02:12:38;8.00;99.90
14095;DHT22;18096;48.142;16.290;2024-02-21T02:15:06;8.00;99.90
14095;DHT22;18096;48.142;16.290;2024-02-21T02:17:32;7.90;99.90
14095;DHT22;18096;48.142;16.290;2024-02-21T02:22:33;7.90;99.90
14095;DHT22;18096;48.142;16.290;2024-02-21T02:25:01;7.90;99.90
14095;DHT22;18096;48.142;16.290;2024-02-21T02:27:27;7.90;99.90
14095;DHT22;18096;48.142;16.290;2024-02-21T02:32:18;8.00;99.90
14095;DHT22;18096;48.142;16.290;2024-02-21T02:37:10;8.00;99.90
14095;DHT22;18096;48.142;16.290;2024-02-21T02:42:02;8.00;99.90
14095;DHT22;18096;48.142;16.290;2024-02-21T02:46:54;7.90;99.90
14095;DHT22;18096;48.142;16.290;2024-02-21T02:49:19;7.90;99.90
14095;DHT22;18096;48.142;16.290;2024-02-21T02:54:11;8.00;99.90
14095;DHT22;18096;48.142;16.290;2024-02-21T02:56:37;8.00;99.90
14095;DHT22;18096;48.142;16.290;2024-02-21T02:59:03;8.00;99.90
14095;DHT22;18096;48.142;16.290;2024-02-21T03:03:54;8.00;99.90
14095;DHT22;18096;48.142;16.290;2024-02-21T03:06:20;8.00;99.90
14095;DHT22;18096;48.142;16.290;2024-02-21T03:11:12;8.00;99.90
14095;DHT22;18096;48.142;16.290;2024-02-21T03:16:04;7.90;99.90
14095;DHT22;18096;48.142;16.290;2024-02-21T03:18:31;7.90;99.90
14095;DHT22;18096;48.142;16.290;2024-02-21T03:20:57;7.90;99.90
14095;DHT22;18096;48.142;16.290;2024-02-21T03:28:15;7.90;99.90
14095;DHT22;18096;48.142;16.290;2024-02-21T03:30:41;7.90;99.90
14095;DHT22;18096;48.142;16.290;2024-02-21T03:37:59;7.90;99.90
14095;DHT22;18096;48.142;16.290;2024-02-21T03:42:50;7.90;99.90
14095;DHT22;18096;48.142;16.290;2024-02-21T03:47:42;7.80;99.90
14095;DHT22;18096;48.142;16.290;2024-02-21T03:50:08;7.80;99.90
14095;DHT22;18096;48.142;16.290;2024-02-21T03:52:34;7.80;99.90
14095;DHT22;18096;48.142;16.290;2024-02-21T03:54:59;7.70;99.90
14095;DHT22;18096;48.142;16.290;2024-02-21T03:57:25;7.70;99.90
14095;DHT22;18096;48.142;16.290;2024-02-21T04:02:18;7.60;99.90
14095;DHT22;18096;48.142;16.290;2024-02-21T04:07:14;7.60;99.90
14095;DHT22;18096;48.142;16.290;2024-02-21T04:09:40;7.50;99.90
14095;DHT22;18096;48.142;16.290;2024-02-21T04:12:07;7.50;99.90
14095;DHT22;18096;48.142;16.290;2024-02-21T04:14:33;7.50;99.90
14095;DHT22;18096;48.142;16.290;2024-02-21T04:17:00;7.40;99.90
14095;DHT22;18096;48.142;16.290;2024-02-21T04:19:25;7.40;99.90
14095;DHT22;18096;48.142;16.290;2024-02-21T04:24:17;7.30;99.90
14095;DHT22;18096;48.142;16.290;2024-02-21T04:29:09;7.30;99.90
14095;DHT22;18096;48.142;16.290;2024-02-21T04:31:35;7.30;99.90
14095;DHT22;18096;48.142;16.290;2024-02-21T04:36:28;7.30;99.90
14095;DHT22;18096;48.142;16.290;2024-02-21T04:38:53;7.30;99.90
14095;DHT22;18096;48.142;16.290;2024-02-21T04:41:19;7.30;99.90
14095;DHT22;18096;48.142;16.290;2024-02-21T04:43:46;7.40;99.90
14095;DHT22;18096;48.142;16.290;2024-02-21T04:46:12;7.40;99.90
14095;DHT22;18096;48.142;16.290;2024-02-21T04:48:38;7.40;99.90
14095;DHT22;18096;48.142;16.290;2024-02-21T04:51:04;7.40;99.90
14095;DHT22;18096;48.142;16.290;2024-02-21T04:55:57;7.50;99.90
14095;DHT22;18096;48.142;16.290;2024-02-21T05:00:48;7.50;99.90
14095;DHT22;18096;48.142;16.290;2024-02-21T05:03:14;7.60;99.90
14095;DHT22;18096;48.142;16.290;2024-02-21T05:05:39;7.60;99.90
14095;DHT22;18096;48.142;16.290;2024-02-21T05:08:05;7.60;99.90
14095;DHT22;18096;48.142;16.290;2024-02-21T05:10:31;7.60;99.90
14095;DHT22;18096;48.142;16.290;2024-02-21T05:12:57;7.60;99.90
14095;DHT22;18096;48.142;16.290;2024-02-21T05:15:23;7.60;99.90
14095;DHT22;18096;48.142;16.290;2024-02-21T05:17:49;7.60;99.90
14095;DHT22;18096;48.142;16.290;2024-02-21T05:20:15;7.60;99.90
14095;DHT22;18096;48.142;16.290;2024-02-21T05:22:41;7.60;99.90
14095;DHT22;18096;48.142;16.290;2024-02-21T05:25:07;7.70;99.90
14095;DHT22;18096;48.142;16.290;2024-02-21T05:29:59;7.70;99.90
14095;DHT22;18096;48.142;16.290;2024-02-21T05:32:26;7.70;99.90
14095;DHT22;18096;48.142;16.290;2024-02-21T05:37:17;7.70;99.90
14095;DHT22;18096;48.142;16.290;2024-02-21T05:39:43;7.70;99.90
14095;DHT22;18096;48.142;16.290;2024-02-21T05:49:27;7.70;99.90
14095;DHT22;18096;48.142;16.290;2024-02-21T05:54:19;7.80;99.90
14095;DHT22;18096;48.142;16.290;2024-02-21T05:56:45;7.80;99.90
14095;DHT22;18096;48.142;16.290;2024-02-21T05:59:11;7.80;99.90
14095;DHT22;18096;48.142;16.290;2024-02-21T06:01:37;7.80;99.90
14095;DHT22;18096;48.142;16.290;2024-02-21T06:04:02;7.90;99.90
14095;DHT22;18096;48.142;16.290;2024-02-21T06:06:28;7.90;99.90
14095;DHT22;18096;48.142;16.290;2024-02-21T06:13:46;7.90;99.90
14095;DHT22;18096;48.142;16.290;2024-02-21T06:16:11;7.90;99.90
14095;DHT22;18096;48.142;16.290;2024-02-21T06:18:37;7.90;99.90
14095;DHT22;18096;48.142;16.290;2024-02-21T06:21:03;7.90;99.90
14095;DHT22;18096;48.142;16.290;2024-02-21T06:23:29;7.90;99.90
14095;DHT22;18096;48.142;16.290;2024-02-21T06:30:46;7.90;99.90
14095;DHT22;18096;48.142;16.290;2024-02-21T06:35:38;7.90;99.90
14095;DHT22;18096;48.142;16.290;2024-02-21T06:38:06;7.90;99.90
14095;DHT22;18096;48.142;16.290;2024-02-21T06:40:33;7.90;99.90
14095;DHT22;18096;48.142;16.290;2024-02-21T06:43:04;7.90;99.90
14095;DHT22;18096;48.142;16.290;2024-02-21T06:45:30;7.90;99.90
14095;DHT22;18096;48.142;16.290;2024-02-21T06:50:22;8.00;99.90
14095;DHT22;18096;48.142;16.290;2024-02-21T06:55:13;8.00;99.90
14095;DHT22;18096;48.142;16.290;2024-02-21T07:00:05;8.70;99.90
14095;DHT22;18096;48.142;16.290;2024-02-21T07:02:33;8.20;99.90
14095;DHT22;18096;48.142;16.290;2024-02-21T07:04:59;8.20;99.90
14095;DHT22;18096;48.142;16.290;2024-02-21T07:07:25;8.20;99.90
14095;DHT22;18096;48.142;16.290;2024-02-21T07:12:18;8.20;99.90
14095;DHT22;18096;48.142;16.290;2024-02-21T07:14:44;8.20;99.90
14095;DHT22;18096;48.142;16.290;2024-02-21T07:17:10;8.20;99.90
14095;DHT22;18096;48.142;16.290;2024-02-21T07:19:36;8.20;99.90
14095;DHT22;18096;48.142;16.290;2024-02-21T07:22:01;8.10;99.90
14095;DHT22;18096;48.142;16.290;2024-02-21T07:24:28;8.10;99.90
14095;DHT22;18096;48.142;16.290;2024-02-21T07:26:55;8.20;99.90
14095;DHT22;18096;48.142;16.290;2024-02-21T07:29:21;8.20;99.90
14095;DHT22;18096;48.142;16.290;2024-02-21T07:31:47;8.30;99.90
14095;DHT22;18096;48.142;16.290;2024-02-21T07:34:14;8.40;99.90
14095;DHT22;18096;48.142;16.290;2024-02-21T07:36:40;8.50;99.90
14095;DHT22;18096;48.142;16.290;2024-02-21T07:39:08;8.60;99.90
14095;DHT22;18096;48.142;16.290;2024-02-21T07:41:33;8.80;99.90
14095;DHT22;18096;48.142;16.290;2024-02-21T07:44:00;8.90;99.90
14095;DHT22;18096;48.142;16.290;2024-02-21T07:46:25;9.00;99.90
14095;DHT22;18096;48.142;16.290;2024-02-21T07:48:51;9.10;99.90
14095;DHT22;18096;48.142;16.290;2024-02-21T07:51:16;9.20;99.90
14095;DHT22;18096;48.142;16.290;2024-02-21T07:53:44;9.20;99.90
14095;DHT22;18096;48.142;16.290;2024-02-21T07:56:14;9.40;99.90
14095;DHT22;18096;48.142;16.290;2024-02-21T07:58:41;9.50;99.90
14095;DHT22;18096;48.142;16.290;2024-02-21T08:01:06;9.50;99.90
14095;DHT22;18096;48.142;16.290;2024-02-21T08:03:32;9.50;99.90
14095;DHT22;18096;48.142;16.290;2024-02-21T08:08:24;9.70;99.90
14095;DHT22;18096;48.142;16.290;2024-02-21T08:10:50;9.70;99.90
14095;DHT22;18096;48.142;16.290;2024-02-21T08:13:16;9.70;99.90
14095;DHT22;18096;48.142;16.290;2024-02-21T08:15:42;9.70;99.90
14095;DHT22;18096;48.142;16.290;2024-02-21T08:18:08;9.70;99.90
14095;DHT22;18096;48.142;16.290;2024-02-21T08:20:34;9.60;99.90
14095;DHT22;18096;48.142;16.290;2024-02-21T08:23:00;9.80;99.90
14095;DHT22;18096;48.142;16.290;2024-02-21T08:25:26;9.80;99.90
14095;DHT22;18096;48.142;16.290;2024-02-21T08:27:54;9.90;99.90
14095;DHT22;18096;48.142;16.290;2024-02-21T08:30:21;10.10;99.90
14095;DHT22;18096;48.142;16.290;2024-02-21T08:32:47;10.30;99.90
14095;DHT22;18096;48.142;16.290;2024-02-21T08:35:13;10.50;99.90
14095;DHT22;18096;48.142;16.290;2024-02-21T08:37:39;10.70;99.90
14095;DHT22;18096;48.142;16.290;2024-02-21T08:40:04;10.90;99.90
14095;DHT22;18096;48.142;16.290;2024-02-21T08:42:35;10.90;99.90
14095;DHT22;18096;48.142;16.290;2024-02-21T08:45:01;10.90;99.90
14095;DHT22;18096;48.142;16.290;2024-02-21T08:47:27;10.90;99.90
14095;DHT22;18096;48.142;16.290;2024-02-21T08:49:52;10.80;99.90
14095;DHT22;18096;48.142;16.290;2024-02-21T08:52:18;10.90;99.90
14095;DHT22;18096;48.142;16.290;2024-02-21T08:54:44;10.90;99.90
14095;DHT22;18096;48.142;16.290;2024-02-21T08:57:09;11.10;99.90
14095;DHT22;18096;48.142;16.290;2024-02-21T08:59:35;11.20;99.90
14095;DHT22;18096;48.142;16.290;2024-02-21T09:02:01;11.20;99.90
14095;DHT22;18096;48.142;16.290;2024-02-21T09:04:28;11.20;99.90
14095;DHT22;18096;48.142;16.290;2024-02-21T09:06:54;11.20;99.90
14095;DHT22;18096;48.142;16.290;2024-02-21T09:09:19;11.20;99.90
14095;DHT22;18096;48.142;16.290;2024-02-21T09:11:45;11.30;99.90
14095;DHT22;18096;48.142;16.290;2024-02-21T09:14:11;11.40;99.90
14095;DHT22;18096;48.142;16.290;2024-02-21T09:16:37;11.50;99.90
14095;DHT22;18096;48.142;16.290;2024-02-21T09:19:02;11.50;99.90
14095;DHT22;18096;48.142;16.290;2024-02-21T09:21:28;11.60;99.90
14095;DHT22;18096;48.142;16.290;2024-02-21T09:23:54;11.60;99.90
14095;DHT22;18096;48.142;16.290;2024-02-21T09:26:20;11.60;99.90
14095;DHT22;18096;48.142;16.290;2024-02-21T09:28:45;11.60;99.90
14095;DHT22;18096;48.142;16.290;2024-02-21T09:31:11;11.60;99.90
14095;DHT22;18096;48.142;16.290;2024-02-21T09:33:37;11.50;99.90
14095;DHT22;18096;48.142;16.290;2024-02-21T09:36:03;11.50;99.90
14095;DHT22;18096;48.142;16.290;2024-02-21T09:38:31;11.50;99.90
14095;DHT22;18096;48.142;16.290;2024-02-21T09:41:08;11.40;99.90
14095;DHT22;18096;48.142;16.290;2024-02-21T09:43:37;11.40;99.90
14095;DHT22;18096;48.142;16.290;2024-02-21T09:46:05;11.50;99.90
14095;DHT22;18096;48.142;16.290;2024-02-21T09:51:20;11.70;99.90
14095;DHT22;18096;48.142;16.290;2024-02-21T09:53:47;11.70;99.90
14095;DHT22;18096;48.142;16.290;2024-02-21T09:56:13;11.70;99.90
14095;DHT22;18096;48.142;16.290;2024-02-21T09:58:39;11.80;99.90
14095;DHT22;18096;48.142;16.290;2024-02-21T10:01:06;12.10;99.90
14095;DHT22;18096;48.142;16.290;2024-02-21T10:03:32;13.10;99.90
14095;DHT22;18096;48.142;16.290;2024-02-21T10:05:59;14.40;99.90
14095;DHT22;18096;48.142;16.290;2024-02-21T10:08:26;15.70;99.90
14095;DHT22;18096;48.142;16.290;2024-02-21T10:10:52;16.70;95.90
14095;DHT22;18096;48.142;16.290;2024-02-21T10:13:26;17.00;92.40
14095;DHT22;18096;48.142;16.290;2024-02-21T10:16:06;16.80;91.30
14095;DHT22;18096;48.142;16.290;2024-02-21T10:18:33;16.10;91.30
14095;DHT22;18096;48.142;16.290;2024-02-21T10:21:03;15.40;91.00
14095;DHT22;18096;48.142;16.290;2024-02-21T10:23:29;14.90;92.60
14095;DHT22;18096;48.142;16.290;2024-02-21T10:26:07;14.60;92.80
14095;DHT22;18096;48.142;16.290;2024-02-21T10:28:33;14.20;92.60
14095;DHT22;18096;48.142;16.290;2024-02-21T10:30:59;14.00;93.70
14095;DHT22;18096;48.142;16.290;2024-02-21T10:33:24;13.90;93.20
14095;DHT22;18096;48.142;16.290;2024-02-21T10:35:53;14.00;93.50
14095;DHT22;18096;48.142;16.290;2024-02-21T10:38:18;13.90;93.10
14095;DHT22;18096;48.142;16.290;2024-02-21T10:40:46;14.30;93.00
14095;DHT22;18096;48.142;16.290;2024-02-21T10:43:14;14.70;92.70
14095;DHT22;18096;48.142;16.290;2024-02-21T10:45:41;15.20;92.00
14095;DHT22;18096;48.142;16.290;2024-02-21T10:48:14;15.40;90.70
14095;DHT22;18096;48.142;16.290;2024-02-21T10:58:46;15.20;90.60
14095;DHT22;18096;48.142;16.290;2024-02-21T11:01:12;15.00;90.70
14095;DHT22;18096;48.142;16.290;2024-02-21T11:03:41;14.60;90.80
14095;DHT22;18096;48.142;16.290;2024-02-21T11:06:10;14.30;90.70
14095;DHT22;18096;48.142;16.290;2024-02-21T11:08:36;14.00;91.90
14095;DHT22;18096;48.142;16.290;2024-02-21T11:11:01;13.70;92.10
14095;DHT22;18096;48.142;16.290;2024-02-21T11:13:31;13.40;91.70
14095;DHT22;18096;48.142;16.290;2024-02-21T11:16:11;13.10;92.50
14095;DHT22;18096;48.142;16.290;2024-02-21T11:18:40;13.00;93.70
14095;DHT22;18096;48.142;16.290;2024-02-21T11:21:06;12.80;93.30
14095;DHT22;18096;48.142;16.290;2024-02-21T11:23:34;12.60;93.80
14095;DHT22;18096;48.142;16.290;2024-02-21T11:26:10;12.40;93.90
14095;DHT22;18096;48.142;16.290;2024-02-21T11:28:36;12.20;94.60
14095;DHT22;18096;48.142;16.290;2024-02-21T11:31:13;12.20;94.70
14095;DHT22;18096;48.142;16.290;2024-02-21T11:33:40;12.20;95.10
14095;DHT22;18096;48.142;16.290;2024-02-21T11:36:08;12.20;94.90
14095;DHT22;18096;48.142;16.290;2024-02-21T11:38:34;12.20;95.60
14095;DHT22;18096;48.142;16.290;2024-02-21T11:40:59;12.20;95.60
14095;DHT22;18096;48.142;16.290;2024-02-21T11:43:26;12.20;95.50
14095;DHT22;18096;48.142;16.290;2024-02-21T11:46:02;12.20;95.60
14095;DHT22;18096;48.142;16.290;2024-02-21T11:48:29;12.30;94.50
14095;DHT22;18096;48.142;16.290;2024-02-21T11:50:56;12.40;94.00
14095;DHT22;18096;48.142;16.290;2024-02-21T11:53:22;12.40;93.60
14095;DHT22;18096;48.142;16.290;2024-02-21T11:55:48;12.30;93.80
14095;DHT22;18096;48.142;16.290;2024-02-21T11:58:14;12.40;94.00
14095;DHT22;18096;48.142;16.290;2024-02-21T12:00:41;12.40;93.60
14095;DHT22;18096;48.142;16.290;2024-02-21T12:03:07;12.50;95.30
14095;DHT22;18096;48.142;16.290;2024-02-21T12:07:59;12.50;93.20
14095;DHT22;18096;48.142;16.290;2024-02-21T12:10:26;12.30;93.10
14095;DHT22;18096;48.142;16.290;2024-02-21T12:12:52;12.30;94.20
14095;DHT22;18096;48.142;16.290;2024-02-21T12:15:20;12.20;93.70
14095;DHT22;18096;48.142;16.290;2024-02-21T12:17:46;12.30;94.20
14095;DHT22;18096;48.142;16.290;2024-02-21T12:20:11;12.10;94.30
14095;DHT22;18096;48.142;16.290;2024-02-21T12:22:38;12.10;94.50
14095;DHT22;18096;48.142;16.290;2024-02-21T12:25:04;12.00;94.20
14095;DHT22;18096;48.142;16.290;2024-02-21T12:27:33;12.00;94.30
14095;DHT22;18096;48.142;16.290;2024-02-21T12:32:25;11.90;94.80
14095;DHT22;18096;48.142;16.290;2024-02-21T12:34:50;11.90;95.20
14095;DHT22;18096;48.142;16.290;2024-02-21T12:37:16;11.90;95.10
14095;DHT22;18096;48.142;16.290;2024-02-21T12:39:42;11.80;95.30
14095;DHT22;18096;48.142;16.290;2024-02-21T12:42:07;11.90;95.50
14095;DHT22;18096;48.142;16.290;2024-02-21T12:44:35;11.90;95.60
14095;DHT22;18096;48.142;16.290;2024-02-21T12:47:01;11.90;95.80
14095;DHT22;18096;48.142;16.290;2024-02-21T12:49:26;11.90;95.80
14095;DHT22;18096;48.142;16.290;2024-02-21T12:51:55;11.90;95.40
14095;DHT22;18096;48.142;16.290;2024-02-21T12:54:21;11.90;95.70
14095;DHT22;18096;48.142;16.290;2024-02-21T12:56:46;11.90;96.10
14095;DHT22;18096;48.142;16.290;2024-02-21T12:59:12;12.00;96.50
14095;DHT22;18096;48.142;16.290;2024-02-21T13:01:39;12.00;95.40
14095;DHT22;18096;48.142;16.290;2024-02-21T13:06:31;12.10;95.90
14095;DHT22;18096;48.142;16.290;2024-02-21T13:08:56;12.20;96.00
14095;DHT22;18096;48.142;16.290;2024-02-21T13:11:23;12.20;96.10
14095;DHT22;18096;48.142;16.290;2024-02-21T13:13:52;12.30;96.00
14095;DHT22;18096;48.142;16.290;2024-02-21T13:16:18;12.30;95.70
14095;DHT22;18096;48.142;16.290;2024-02-21T13:18:44;12.40;95.90
14095;DHT22;18096;48.142;16.290;2024-02-21T13:21:12;12.40;96.60
14095;DHT22;18096;48.142;16.290;2024-02-21T13:26:05;12.80;94.80
14095;DHT22;18096;48.142;16.290;2024-02-21T13:28:31;13.40;94.90
14095;DHT22;18096;48.142;16.290;2024-02-21T13:30:56;14.40;92.80
14095;DHT22;18096;48.142;16.290;2024-02-21T13:35:48;14.90;92.00
14095;DHT22;18096;48.142;16.290;2024-02-21T13:38:14;15.40;91.80
14095;DHT22;18096;48.142;16.290;2024-02-21T13:40:40;16.00;91.90
14095;DHT22;18096;48.142;16.290;2024-02-21T13:43:07;16.60;90.10
14095;DHT22;18096;48.142;16.290;2024-02-21T13:45:33;16.70;86.80
14095;DHT22;18096;48.142;16.290;2024-02-21T13:50:29;16.40;84.60
14095;DHT22;18096;48.142;16.290;2024-02-21T14:00:19;16.10;86.40
14095;DHT22;18096;48.142;16.290;2024-02-21T14:05:12;15.90;83.00
14095;DHT22;18096;48.142;16.290;2024-02-21T14:07:38;15.70;84.90
14095;DHT22;18096;48.142;16.290;2024-02-21T14:10:04;15.10;86.80
14095;DHT22;18096;48.142;16.290;2024-02-21T14:12:30;15.10;87.40
14095;DHT22;18096;48.142;16.290;2024-02-21T14:14:57;14.50;86.20
14095;DHT22;18096;48.142;16.290;2024-02-21T14:17:24;14.50;86.80
14095;DHT22;18096;48.142;16.290;2024-02-21T14:19:50;14.20;89.30
14095;DHT22;18096;48.142;16.290;2024-02-21T14:24:43;13.90;88.80
14095;DHT22;18096;48.142;16.290;2024-02-21T14:29:34;13.80;87.80
14095;DHT22;18096;48.142;16.290;2024-02-21T14:36:53;13.40;87.40
14095;DHT22;18096;48.142;16.290;2024-02-21T14:56:24;13.40;88.50
14095;DHT22;18096;48.142;16.290;2024-02-21T15:01:16;13.30;90.30
14095;DHT22;18096;48.142;16.290;2024-02-21T15:08:37;13.00;91.10
14095;DHT22;18096;48.142;16.290;2024-02-21T15:13:29;12.80;91.10
14095;DHT22;18096;48.142;16.290;2024-02-21T15:15:55;12.70;91.10
14095;DHT22;18096;48.142;16.290;2024-02-21T15:18:21;12.70;90.80
14095;DHT22;18096;48.142;16.290;2024-02-21T15:20:47;12.60;90.60
14095;DHT22;18096;48.142;16.290;2024-02-21T15:32:58;12.30;91.60
14095;DHT22;18096;48.142;16.290;2024-02-21T15:35:35;12.20;91.90
14095;DHT22;18096;48.142;16.290;2024-02-21T15:40:28;12.10;92.90
14095;DHT22;18096;48.142;16.290;2024-02-21T15:45:21;12.00;93.00
14095;DHT22;18096;48.142;16.290;2024-02-21T15:50:13;12.00;93.20
14095;DHT22;18096;48.142;16.290;2024-02-21T15:55:05;12.00;93.60
14095;DHT22;18096;48.142;16.290;2024-02-21T15:57:38;11.90;93.50
14095;DHT22;18096;48.142;16.290;2024-02-21T16:00:07;11.90;93.60
14095;DHT22;18096;48.142;16.290;2024-02-21T16:02:38;11.80;94.10
14095;DHT22;18096;48.142;16.290;2024-02-21T16:05:09;11.70;94.00
14095;DHT22;18096;48.142;16.290;2024-02-21T16:07:37;11.70;94.20
14095;DHT22;18096;48.142;16.290;2024-02-21T16:10:06;11.60;94.50
14095;DHT22;18096;48.142;16.290;2024-02-21T16:12:33;11.50;94.60
14095;DHT22;18096;48.142;16.290;2024-02-21T16:14:59;11.40;95.10
14095;DHT22;18096;48.142;16.290;2024-02-21T16:17:27;11.30;95.40
14095;DHT22;18096;48.142;16.290;2024-02-21T16:27:11;11.10;96.30
14095;DHT22;18096;48.142;16.290;2024-02-21T16:29:37;11.00;96.50
14095;DHT22;18096;48.142;16.290;2024-02-21T16:32:04;10.90;96.60
14095;DHT22;18096;48.142;16.290;2024-02-21T16:34:31;10.90;97.00
14095;DHT22;18096;48.142;16.290;2024-02-21T16:39:26;10.70;97.70
14095;DHT22;18096;48.142;16.290;2024-02-21T16:44:21;10.50;98.30
14095;DHT22;18096;48.142;16.290;2024-02-21T16:49:13;10.40;99.10
14095;DHT22;18096;48.142;16.290;2024-02-21T16:51:39;10.40;99.20
14095;DHT22;18096;48.142;16.290;2024-02-21T16:54:05;10.30;99.60
14095;DHT22;18096;48.142;16.290;2024-02-21T16:56:34;10.20;99.80
14095;DHT22;18096;48.142;16.290;2024-02-21T17:03:55;9.90;99.90
14095;DHT22;18096;48.142;16.290;2024-02-21T17:08:47;9.80;99.90
14095;DHT22;18096;48.142;16.290;2024-02-21T17:11:13;9.80;99.90
14095;DHT22;18096;48.142;16.290;2024-02-21T17:16:05;9.60;99.90
14095;DHT22;18096;48.142;16.290;2024-02-21T17:28:15;9.30;99.90
14095;DHT22;18096;48.142;16.290;2024-02-21T17:30:40;9.30;99.90
14095;DHT22;18096;48.142;16.290;2024-02-21T17:33:06;9.30;99.90
14095;DHT22;18096;48.142;16.290;2024-02-21T17:35:35;9.10;99.90
14095;DHT22;18096;48.142;16.290;2024-02-21T17:38:04;9.10;99.90
14095;DHT22;18096;48.142;16.290;2024-02-21T17:40:32;9.10;99.90
14095;DHT22;18096;48.142;16.290;2024-02-21T17:47:50;8.90;99.90
14095;DHT22;18096;48.142;16.290;2024-02-21T17:50:17;8.80;99.90
14095;DHT22;18096;48.142;16.290;2024-02-21T17:52:44;8.80;99.90
14095;DHT22;18096;48.142;16.290;2024-02-21T18:00:04;8.80;99.90
14095;DHT22;18096;48.142;16.290;2024-02-21T18:04:56;8.70;99.90
14095;DHT22;18096;48.142;16.290;2024-02-21T18:09:49;8.60;99.90
14095;DHT22;18096;48.142;16.290;2024-02-21T18:12:16;8.70;99.90
14095;DHT22;18096;48.142;16.290;2024-02-21T18:14:43;8.60;99.90
14095;DHT22;18096;48.142;16.290;2024-02-21T18:17:08;8.60;99.90
14095;DHT22;18096;48.142;16.290;2024-02-21T18:22:01;8.50;99.90
14095;DHT22;18096;48.142;16.290;2024-02-21T18:24:27;8.50;99.90
14095;DHT22;18096;48.142;16.290;2024-02-21T18:26:53;8.50;99.90
14095;DHT22;18096;48.142;16.290;2024-02-21T18:29:19;8.50;99.90
14095;DHT22;18096;48.142;16.290;2024-02-21T18:31:45;8.50;99.90
14095;DHT22;18096;48.142;16.290;2024-02-21T18:34:10;8.40;99.90
14095;DHT22;18096;48.142;16.290;2024-02-21T18:36:37;8.40;99.90
14095;DHT22;18096;48.142;16.290;2024-02-21T18:39:03;8.20;99.90
14095;DHT22;18096;48.142;16.290;2024-02-21T18:46:21;8.10;99.90
14095;DHT22;18096;48.142;16.290;2024-02-21T18:48:47;8.10;99.90
14095;DHT22;18096;48.142;16.290;2024-02-21T18:51:13;8.00;99.90
14095;DHT22;18096;48.142;16.290;2024-02-21T18:53:40;8.00;99.90
14095;DHT22;18096;48.142;16.290;2024-02-21T18:56:07;8.00;99.90
14095;DHT22;18096;48.142;16.290;2024-02-21T19:01:01;7.90;99.90
14095;DHT22;18096;48.142;16.290;2024-02-21T19:03:27;7.80;99.90
14095;DHT22;18096;48.142;16.290;2024-02-21T19:05:52;7.80;99.90
14095;DHT22;18096;48.142;16.290;2024-02-21T19:08:18;7.70;99.90
14095;DHT22;18096;48.142;16.290;2024-02-21T19:10:44;7.70;99.90
14095;DHT22;18096;48.142;16.290;2024-02-21T19:13:10;7.70;99.90
14095;DHT22;18096;48.142;16.290;2024-02-21T19:15:37;7.60;99.90
14095;DHT22;18096;48.142;16.290;2024-02-21T19:18:07;7.60;99.90
14095;DHT22;18096;48.142;16.290;2024-02-21T19:20:32;7.60;99.90
14095;DHT22;18096;48.142;16.290;2024-02-21T19:22:58;7.50;99.90